sensor_id;sensor_type;location;lat;lon;timestamp;temperature;humidity
66271;DHT22;53063;39.614;8.814;2023-05-23T00:00:28;15.30;99.90
66271;DHT22;53063;39.614;8.814;2023-05-23T00:02:53;15.30;99.90
66271;DHT22;53063;39.614;8.814;2023-05-23T00:05:19;15.30;99.90
66271;DHT22;53063;39.614;8.814;2023-05-23T00:07:45;15.20;99.90
66271;DHT22;53063;39.614;8.814;2023-05-23T00:10:12;15.20;99.90
66271;DHT22;53063;39.614;8.814;2023-05-23T00:12:38;15.20;99.90
66271;DHT22;53063;39.614;8.814;2023-05-23T00:15:07;15.30;99.90
66271;DHT22;53063;39.614;8.814;2023-05-23T00:17:34;15.30;99.90
66271;DHT22;53063;39.614;8.814;2023-05-23T00:20:05;15.20;99.90
66271;DHT22;53063;39.614;8.814;2023-05-23T00:22:34;15.20;99.90
66271;DHT22;53063;39.614;8.814;2023-05-23T00:25:06;15.20;99.90
66271;DHT22;53063;39.614;8.814;2023-05-23T00:27:33;15.20;99.90
66271;DHT22;53063;39.614;8.814;2023-05-23T00:29:59;15.30;99.90
66271;DHT22;53063;39.614;8.814;2023-05-23T00:32:25;15.20;99.90
66271;DHT22;53063;39.614;8.814;2023-05-23T00:34:51;15.20;99.90
66271;DHT22;53063;39.614;8.814;2023-05-23T00:37:19;15.20;99.90
66271;DHT22;53063;39.614;8.814;2023-05-23T00:39:47;15.30;99.90
66271;DHT22;53063;39.614;8.814;2023-05-23T00:42:13;15.30;99.90
66271;DHT22;53063;39.614;8.814;2023-05-23T00:44:39;15.30;99.90
66271;DHT22;53063;39.614;8.814;2023-05-23T00:47:06;15.30;99.90
66271;DHT22;53063;39.614;8.814;2023-05-23T00:49:32;15.20;99.90
66271;DHT22;53063;39.614;8.814;2023-05-23T00:51:59;15.20;99.90
66271;DHT22;53063;39.614;8.814;2023-05-23T00:54:28;15.00;99.90
66271;DHT22;53063;39.614;8.814;2023-05-23T00:56:56;14.80;99.90
66271;DHT22;53063;39.614;8.814;2023-05-23T00:59:25;14.80;99.90
66271;DHT22;53063;39.614;8.814;2023-05-23T01:01:54;14.80;99.90
66271;DHT22;53063;39.614;8.814;2023-05-23T01:04:20;14.70;99.90
66271;DHT22;53063;39.614;8.814;2023-05-23T01:06:54;14.70;99.90
66271;DHT22;53063;39.614;8.814;2023-05-23T01:09:21;14.70;99.90
66271;DHT22;53063;39.614;8.814;2023-05-23T01:12:13;14.70;99.90
66271;DHT22;53063;39.614;8.814;2023-05-23T01:15:05;14.60;99.90
66271;DHT22;53063;39.614;8.814;2023-05-23T01:20:23;14.50;99.90
66271;DHT22;53063;39.614;8.814;2023-05-23T01:28:02;14.60;99.90
66271;DHT22;53063;39.614;8.814;2023-05-23T01:30:31;14.50;99.90
66271;DHT22;53063;39.614;8.814;2023-05-23T01:33:00;14.40;99.90
66271;DHT22;53063;39.614;8.814;2023-05-23T01:35:27;14.40;99.90
66271;DHT22;53063;39.614;8.814;2023-05-23T01:37:54;14.50;99.90
66271;DHT22;53063;39.614;8.814;2023-05-23T01:40:24;14.50;99.90
66271;DHT22;53063;39.614;8.814;2023-05-23T01:42:51;14.50;99.90
66271;DHT22;53063;39.614;8.814;2023-05-23T01:45:19;14.30;99.90
66271;DHT22;53063;39.614;8.814;2023-05-23T01:47:47;14.20;99.90
66271;DHT22;53063;39.614;8.814;2023-05-23T01:50:13;14.20;99.90
66271;DHT22;53063;39.614;8.814;2023-05-23T01:52:41;14.20;99.90
66271;DHT22;53063;39.614;8.814;2023-05-23T01:55:08;14.20;99.90
66271;DHT22;53063;39.614;8.814;2023-05-23T01:57:35;14.40;99.90
66271;DHT22;53063;39.614;8.814;2023-05-23T02:00:08;14.60;99.90
66271;DHT22;53063;39.614;8.814;2023-05-23T02:02:40;14.70;99.90
66271;DHT22;53063;39.614;8.814;2023-05-23T02:05:08;14.80;99.90
66271;DHT22;53063;39.614;8.814;2023-05-23T02:07:34;14.80;99.90
66271;DHT22;53063;39.614;8.814;2023-05-23T02:10:00;14.90;99.90
66271;DHT22;53063;39.614;8.814;2023-05-23T02:12:27;14.90;99.90
66271;DHT22;53063;39.614;8.814;2023-05-23T02:14:53;14.90;99.90
66271;DHT22;53063;39.614;8.814;2023-05-23T02:17:20;14.90;99.90
66271;DHT22;53063;39.614;8.814;2023-05-23T02:19:47;14.80;99.90
66271;DHT22;53063;39.614;8.814;2023-05-23T02:22:13;14.80;99.90
66271;DHT22;53063;39.614;8.814;2023-05-23T02:24:40;14.70;99.90
66271;DHT22;53063;39.614;8.814;2023-05-23T02:27:06;14.50;99.90
66271;DHT22;53063;39.614;8.814;2023-05-23T02:29:32;14.30;99.90
66271;DHT22;53063;39.614;8.814;2023-05-23T02:31:58;14.20;99.90
66271;DHT22;53063;39.614;8.814;2023-05-23T02:34:24;14.20;99.90
66271;DHT22;53063;39.614;8.814;2023-05-23T02:36:50;14.20;99.90
66271;DHT22;53063;39.614;8.814;2023-05-23T02:39:16;14.20;99.90
66271;DHT22;53063;39.614;8.814;2023-05-23T02:41:44;14.10;99.90
66271;DHT22;53063;39.614;8.814;2023-05-23T02:44:10;14.00;99.90
66271;DHT22;53063;39.614;8.814;2023-05-23T02:46:36;14.00;99.90
66271;DHT22;53063;39.614;8.814;2023-05-23T02:49:03;14.00;99.90
66271;DHT22;53063;39.614;8.814;2023-05-23T02:51:29;14.10;99.90
66271;DHT22;53063;39.614;8.814;2023-05-23T02:53:57;14.10;99.90
66271;DHT22;53063;39.614;8.814;2023-05-23T02:56:23;14.10;99.90
66271;DHT22;53063;39.614;8.814;2023-05-23T02:58:49;14.20;99.90
66271;DHT22;53063;39.614;8.814;2023-05-23T03:01:15;14.20;99.90
66271;DHT22;53063;39.614;8.814;2023-05-23T03:03:41;14.10;99.90
66271;DHT22;53063;39.614;8.814;2023-05-23T03:06:07;14.10;99.90
66271;DHT22;53063;39.614;8.814;2023-05-23T03:08:35;14.00;99.90
66271;DHT22;53063;39.614;8.814;2023-05-23T03:11:01;14.00;99.90
66271;DHT22;53063;39.614;8.814;2023-05-23T03:13:27;13.90;99.90
66271;DHT22;53063;39.614;8.814;2023-05-23T03:15:53;13.80;99.90
66271;DHT22;53063;39.614;8.814;2023-05-23T03:18:19;13.70;99.90
66271;DHT22;53063;39.614;8.814;2023-05-23T03:20:45;13.70;99.90
66271;DHT22;53063;39.614;8.814;2023-05-23T03:23:11;13.70;99.90
66271;DHT22;53063;39.614;8.814;2023-05-23T03:25:37;13.60;99.90
66271;DHT22;53063;39.614;8.814;2023-05-23T03:28:03;13.50;99.90
66271;DHT22;53063;39.614;8.814;2023-05-23T03:30:29;13.50;99.90
66271;DHT22;53063;39.614;8.814;2023-05-23T03:32:55;13.40;99.90
66271;DHT22;53063;39.614;8.814;2023-05-23T03:35:21;13.40;99.90
66271;DHT22;53063;39.614;8.814;2023-05-23T03:37:47;13.40;99.90
66271;DHT22;53063;39.614;8.814;2023-05-23T03:40:13;13.40;99.90
66271;DHT22;53063;39.614;8.814;2023-05-23T03:42:39;13.40;99.90
66271;DHT22;53063;39.614;8.814;2023-05-23T03:45:06;13.30;99.90
66271;DHT22;53063;39.614;8.814;2023-05-23T03:47:31;13.30;99.90
66271;DHT22;53063;39.614;8.814;2023-05-23T03:49:58;13.30;99.90
66271;DHT22;53063;39.614;8.814;2023-05-23T03:52:26;13.20;99.90
66271;DHT22;53063;39.614;8.814;2023-05-23T03:54:53;13.20;99.90
66271;DHT22;53063;39.614;8.814;2023-05-23T03:57:19;13.20;99.90
66271;DHT22;53063;39.614;8.814;2023-05-23T03:59:46;13.20;99.90
66271;DHT22;53063;39.614;8.814;2023-05-23T04:02:12;13.30;99.90
66271;DHT22;53063;39.614;8.814;2023-05-23T04:04:38;13.30;99.90
66271;DHT22;53063;39.614;8.814;2023-05-23T04:07:05;13.30;99.90
66271;DHT22;53063;39.614;8.814;2023-05-23T04:09:31;13.20;99.90
66271;DHT22;53063;39.614;8.814;2023-05-23T04:11:58;13.20;99.90
66271;DHT22;53063;39.614;8.814;2023-05-23T04:14:25;13.20;99.90
66271;DHT22;53063;39.614;8.814;2023-05-23T04:16:53;13.20;99.90
66271;DHT22;53063;39.614;8.814;2023-05-23T04:19:20;13.20;99.90
66271;DHT22;53063;39.614;8.814;2023-05-23T04:21:46;13.20;99.90
66271;DHT22;53063;39.614;8.814;2023-05-23T04:24:14;13.20;99.90
66271;DHT22;53063;39.614;8.814;2023-05-23T04:26:40;13.30;99.90
66271;DHT22;53063;39.614;8.814;2023-05-23T04:29:08;13.30;99.90
66271;DHT22;53063;39.614;8.814;2023-05-23T04:31:36;13.40;99.90
66271;DHT22;53063;39.614;8.814;2023-05-23T04:34:03;13.50;99.90
66271;DHT22;53063;39.614;8.814;2023-05-23T04:36:31;13.60;99.90
66271;DHT22;53063;39.614;8.814;2023-05-23T04:38:57;13.50;99.90
66271;DHT22;53063;39.614;8.814;2023-05-23T04:41:23;13.50;99.90
66271;DHT22;53063;39.614;8.814;2023-05-23T04:44:03;13.60;99.90
66271;DHT22;53063;39.614;8.814;2023-05-23T04:46:45;13.80;99.90
66271;DHT22;53063;39.614;8.814;2023-05-23T04:49:38;13.80;99.90
66271;DHT22;53063;39.614;8.814;2023-05-23T04:52:05;13.80;99.90
66271;DHT22;53063;39.614;8.814;2023-05-23T04:54:32;14.00;99.90
66271;DHT22;53063;39.614;8.814;2023-05-23T04:57:01;14.00;99.90
66271;DHT22;53063;39.614;8.814;2023-05-23T04:59:28;13.90;99.90
66271;DHT22;53063;39.614;8.814;2023-05-23T05:01:54;14.00;99.90
66271;DHT22;53063;39.614;8.814;2023-05-23T05:04:20;14.00;99.90
66271;DHT22;53063;39.614;8.814;2023-05-23T05:06:48;14.10;99.90
66271;DHT22;53063;39.614;8.814;2023-05-23T05:09:14;14.20;99.90
66271;DHT22;53063;39.614;8.814;2023-05-23T05:11:42;14.30;99.90
66271;DHT22;53063;39.614;8.814;2023-05-23T05:14:09;14.40;99.90
66271;DHT22;53063;39.614;8.814;2023-05-23T05:16:35;14.50;99.90
66271;DHT22;53063;39.614;8.814;2023-05-23T05:19:02;14.70;99.90
66271;DHT22;53063;39.614;8.814;2023-05-23T05:21:29;14.80;99.90
66271;DHT22;53063;39.614;8.814;2023-05-23T05:23:56;15.00;99.90
66271;DHT22;53063;39.614;8.814;2023-05-23T05:26:22;15.20;99.90
66271;DHT22;53063;39.614;8.814;2023-05-23T05:28:49;15.30;99.90
66271;DHT22;53063;39.614;8.814;2023-05-23T05:31:16;15.40;99.90
66271;DHT22;53063;39.614;8.814;2023-05-23T05:33:42;15.60;99.90
66271;DHT22;53063;39.614;8.814;2023-05-23T05:36:14;15.70;99.90
66271;DHT22;53063;39.614;8.814;2023-05-23T05:38:42;15.90;99.90
66271;DHT22;53063;39.614;8.814;2023-05-23T05:41:07;16.00;99.90
66271;DHT22;53063;39.614;8.814;2023-05-23T05:43:35;16.20;99.90
66271;DHT22;53063;39.614;8.814;2023-05-23T05:46:02;16.40;99.90
66271;DHT22;53063;39.614;8.814;2023-05-23T05:48:29;17.00;99.90
66271;DHT22;53063;39.614;8.814;2023-05-23T05:50:59;17.60;99.90
66271;DHT22;53063;39.614;8.814;2023-05-23T05:53:26;17.60;99.90
66271;DHT22;53063;39.614;8.814;2023-05-23T05:55:53;18.10;99.90
66271;DHT22;53063;39.614;8.814;2023-05-23T05:58:19;19.30;99.90
66271;DHT22;53063;39.614;8.814;2023-05-23T06:00:59;20.00;99.90
66271;DHT22;53063;39.614;8.814;2023-05-23T06:03:25;20.00;99.90
66271;DHT22;53063;39.614;8.814;2023-05-23T06:05:53;20.20;99.60
66271;DHT22;53063;39.614;8.814;2023-05-23T06:08:20;19.00;99.90
66271;DHT22;53063;39.614;8.814;2023-05-23T06:10:47;19.00;99.90
66271;DHT22;53063;39.614;8.814;2023-05-23T06:13:13;20.20;98.80
66271;DHT22;53063;39.614;8.814;2023-05-23T06:15:42;20.90;94.70
66271;DHT22;53063;39.614;8.814;2023-05-23T06:18:08;21.10;94.70
66271;DHT22;53063;39.614;8.814;2023-05-23T06:20:35;21.30;92.90
66271;DHT22;53063;39.614;8.814;2023-05-23T06:23:04;21.40;92.70
66271;DHT22;53063;39.614;8.814;2023-05-23T06:25:30;21.50;91.10
66271;DHT22;53063;39.614;8.814;2023-05-23T06:27:56;22.20;87.90
66271;DHT22;53063;39.614;8.814;2023-05-23T06:30:22;21.80;87.80
66271;DHT22;53063;39.614;8.814;2023-05-23T06:32:48;22.30;86.00
66271;DHT22;53063;39.614;8.814;2023-05-23T06:35:14;21.80;86.70
66271;DHT22;53063;39.614;8.814;2023-05-23T06:37:42;21.50;85.90
66271;DHT22;53063;39.614;8.814;2023-05-23T06:40:11;20.80;90.20
66271;DHT22;53063;39.614;8.814;2023-05-23T06:42:39;20.20;94.40
66271;DHT22;53063;39.614;8.814;2023-05-23T06:45:17;20.10;95.10
66271;DHT22;53063;39.614;8.814;2023-05-23T06:47:43;20.40;96.70
66271;DHT22;53063;39.614;8.814;2023-05-23T06:50:11;20.40;94.60
66271;DHT22;53063;39.614;8.814;2023-05-23T06:52:37;20.30;95.60
66271;DHT22;53063;39.614;8.814;2023-05-23T06:55:03;20.40;94.40
66271;DHT22;53063;39.614;8.814;2023-05-23T06:57:29;20.50;93.30
66271;DHT22;53063;39.614;8.814;2023-05-23T06:59:56;20.50;91.80
66271;DHT22;53063;39.614;8.814;2023-05-23T07:02:22;20.50;90.90
66271;DHT22;53063;39.614;8.814;2023-05-23T07:04:49;20.60;90.80
66271;DHT22;53063;39.614;8.814;2023-05-23T07:07:21;20.50;91.00
66271;DHT22;53063;39.614;8.814;2023-05-23T07:09:48;20.60;90.40
66271;DHT22;53063;39.614;8.814;2023-05-23T07:12:18;20.70;89.20
66271;DHT22;53063;39.614;8.814;2023-05-23T07:14:46;20.80;88.70
66271;DHT22;53063;39.614;8.814;2023-05-23T07:17:13;20.70;88.30
66271;DHT22;53063;39.614;8.814;2023-05-23T07:19:38;20.80;88.20
66271;DHT22;53063;39.614;8.814;2023-05-23T07:22:05;20.90;87.70
66271;DHT22;53063;39.614;8.814;2023-05-23T07:24:33;21.20;88.10
66271;DHT22;53063;39.614;8.814;2023-05-23T07:26:59;21.40;86.80
66271;DHT22;53063;39.614;8.814;2023-05-23T07:29:26;21.30;85.90
66271;DHT22;53063;39.614;8.814;2023-05-23T07:31:52;21.40;86.40
66271;DHT22;53063;39.614;8.814;2023-05-23T07:34:20;21.60;84.10
66271;DHT22;53063;39.614;8.814;2023-05-23T07:36:53;22.00;85.30
66271;DHT22;53063;39.614;8.814;2023-05-23T07:39:20;21.90;82.90
66271;DHT22;53063;39.614;8.814;2023-05-23T07:41:48;21.70;83.10
66271;DHT22;53063;39.614;8.814;2023-05-23T07:44:18;21.90;83.60
66271;DHT22;53063;39.614;8.814;2023-05-23T07:46:44;21.80;84.70
66271;DHT22;53063;39.614;8.814;2023-05-23T07:49:10;22.10;83.30
66271;DHT22;53063;39.614;8.814;2023-05-23T07:51:37;22.30;81.70
66271;DHT22;53063;39.614;8.814;2023-05-23T07:54:04;22.30;80.30
66271;DHT22;53063;39.614;8.814;2023-05-23T07:56:31;22.60;81.30
66271;DHT22;53063;39.614;8.814;2023-05-23T07:58:57;22.70;78.00
66271;DHT22;53063;39.614;8.814;2023-05-23T08:01:23;22.60;76.80
66271;DHT22;53063;39.614;8.814;2023-05-23T08:04:01;22.70;76.90
66271;DHT22;53063;39.614;8.814;2023-05-23T08:06:32;22.70;77.50
66271;DHT22;53063;39.614;8.814;2023-05-23T08:09:02;23.00;75.90
66271;DHT22;53063;39.614;8.814;2023-05-23T08:11:33;22.80;74.00
66271;DHT22;53063;39.614;8.814;2023-05-23T08:14:00;23.00;73.60
66271;DHT22;53063;39.614;8.814;2023-05-23T08:16:38;23.10;75.20
66271;DHT22;53063;39.614;8.814;2023-05-23T08:19:15;23.20;74.50
66271;DHT22;53063;39.614;8.814;2023-05-23T08:21:43;23.20;73.00
66271;DHT22;53063;39.614;8.814;2023-05-23T08:24:09;23.30;71.40
66271;DHT22;53063;39.614;8.814;2023-05-23T08:26:38;23.20;73.90
66271;DHT22;53063;39.614;8.814;2023-05-23T08:29:08;23.50;72.80
66271;DHT22;53063;39.614;8.814;2023-05-23T08:31:35;23.50;70.30
66271;DHT22;53063;39.614;8.814;2023-05-23T08:34:02;23.30;71.70
66271;DHT22;53063;39.614;8.814;2023-05-23T08:36:28;23.60;70.40
66271;DHT22;53063;39.614;8.814;2023-05-23T08:38:55;23.90;69.20
66271;DHT22;53063;39.614;8.814;2023-05-23T08:41:29;23.80;68.70
66271;DHT22;53063;39.614;8.814;2023-05-23T08:44:02;24.00;68.30
66271;DHT22;53063;39.614;8.814;2023-05-23T08:46:33;23.90;67.10
66271;DHT22;53063;39.614;8.814;2023-05-23T08:49:04;24.10;65.80
66271;DHT22;53063;39.614;8.814;2023-05-23T08:51:32;24.40;66.00
66271;DHT22;53063;39.614;8.814;2023-05-23T08:54:02;24.40;65.40
66271;DHT22;53063;39.614;8.814;2023-05-23T08:56:29;24.50;64.80
66271;DHT22;53063;39.614;8.814;2023-05-23T08:58:57;24.60;63.40
66271;DHT22;53063;39.614;8.814;2023-05-23T09:01:26;24.60;64.20
66271;DHT22;53063;39.614;8.814;2023-05-23T09:03:55;24.80;63.50
66271;DHT22;53063;39.614;8.814;2023-05-23T09:06:27;25.00;63.50
66271;DHT22;53063;39.614;8.814;2023-05-23T09:08:55;24.80;62.40
66271;DHT22;53063;39.614;8.814;2023-05-23T09:11:23;25.30;63.10
66271;DHT22;53063;39.614;8.814;2023-05-23T09:13:50;25.40;60.70
66271;DHT22;53063;39.614;8.814;2023-05-23T09:16:18;25.30;60.40
66271;DHT22;53063;39.614;8.814;2023-05-23T09:18:52;25.40;61.20
66271;DHT22;53063;39.614;8.814;2023-05-23T09:21:20;25.20;60.50
66271;DHT22;53063;39.614;8.814;2023-05-23T09:24:18;24.80;61.60
66271;DHT22;53063;39.614;8.814;2023-05-23T09:26:48;24.80;61.20
66271;DHT22;53063;39.614;8.814;2023-05-23T09:29:18;25.10;61.10
66271;DHT22;53063;39.614;8.814;2023-05-23T09:31:45;25.00;61.50
66271;DHT22;53063;39.614;8.814;2023-05-23T09:34:11;25.40;61.20
66271;DHT22;53063;39.614;8.814;2023-05-23T09:36:40;26.20;58.90
66271;DHT22;53063;39.614;8.814;2023-05-23T09:39:10;25.90;59.10
66271;DHT22;53063;39.614;8.814;2023-05-23T09:41:37;25.90;58.90
66271;DHT22;53063;39.614;8.814;2023-05-23T09:44:09;25.70;61.10
66271;DHT22;53063;39.614;8.814;2023-05-23T09:46:36;25.60;59.50
66271;DHT22;53063;39.614;8.814;2023-05-23T09:49:17;25.40;60.80
66271;DHT22;53063;39.614;8.814;2023-05-23T09:51:56;25.40;58.50
66271;DHT22;53063;39.614;8.814;2023-05-23T09:54:22;25.00;60.10
66271;DHT22;53063;39.614;8.814;2023-05-23T09:56:52;24.70;61.00
66271;DHT22;53063;39.614;8.814;2023-05-23T09:59:20;24.90;61.10
66271;DHT22;53063;39.614;8.814;2023-05-23T10:01:50;25.50;58.00
66271;DHT22;53063;39.614;8.814;2023-05-23T10:04:21;25.20;58.70
66271;DHT22;53063;39.614;8.814;2023-05-23T10:06:52;25.10;60.00
66271;DHT22;53063;39.614;8.814;2023-05-23T10:09:22;25.90;56.80
66271;DHT22;53063;39.614;8.814;2023-05-23T10:14:25;26.00;59.40
66271;DHT22;53063;39.614;8.814;2023-05-23T10:17:09;25.70;57.50
66271;DHT22;53063;39.614;8.814;2023-05-23T10:19:43;26.20;57.30
66271;DHT22;53063;39.614;8.814;2023-05-23T10:22:11;26.20;55.50
66271;DHT22;53063;39.614;8.814;2023-05-23T10:24:39;26.10;58.30
66271;DHT22;53063;39.614;8.814;2023-05-23T10:27:06;25.40;58.80
66271;DHT22;53063;39.614;8.814;2023-05-23T10:29:32;25.70;58.60
66271;DHT22;53063;39.614;8.814;2023-05-23T10:32:00;26.20;56.10
66271;DHT22;53063;39.614;8.814;2023-05-23T10:34:36;26.50;55.80
66271;DHT22;53063;39.614;8.814;2023-05-23T10:37:05;26.30;55.30
66271;DHT22;53063;39.614;8.814;2023-05-23T10:42:55;26.00;55.70
66271;DHT22;53063;39.614;8.814;2023-05-23T10:45:23;26.90;54.20
66271;DHT22;53063;39.614;8.814;2023-05-23T10:47:51;26.70;52.80
66271;DHT22;53063;39.614;8.814;2023-05-23T10:50:31;26.70;53.70
66271;DHT22;53063;39.614;8.814;2023-05-23T10:53:03;26.30;54.90
66271;DHT22;53063;39.614;8.814;2023-05-23T10:55:34;26.30;54.30
66271;DHT22;53063;39.614;8.814;2023-05-23T10:58:10;26.70;53.30
66271;DHT22;53063;39.614;8.814;2023-05-23T11:00:36;27.50;51.10
66271;DHT22;53063;39.614;8.814;2023-05-23T11:03:04;27.20;50.90
66271;DHT22;53063;39.614;8.814;2023-05-23T11:05:34;26.80;51.00
66271;DHT22;53063;39.614;8.814;2023-05-23T11:08:09;27.10;52.00
66271;DHT22;53063;39.614;8.814;2023-05-23T11:11:14;27.20;49.80
66271;DHT22;53063;39.614;8.814;2023-05-23T11:18:51;27.00;49.80
66271;DHT22;53063;39.614;8.814;2023-05-23T11:21:17;27.00;50.20
66271;DHT22;53063;39.614;8.814;2023-05-23T11:23:44;27.10;51.30
66271;DHT22;53063;39.614;8.814;2023-05-23T11:26:29;27.80;48.50
66271;DHT22;53063;39.614;8.814;2023-05-23T11:28:57;27.90;48.70
66271;DHT22;53063;39.614;8.814;2023-05-23T11:31:23;27.90;48.20
66271;DHT22;53063;39.614;8.814;2023-05-23T11:33:53;28.30;47.70
66271;DHT22;53063;39.614;8.814;2023-05-23T11:36:22;27.50;47.90
66271;DHT22;53063;39.614;8.814;2023-05-23T11:38:51;27.40;48.40
66271;DHT22;53063;39.614;8.814;2023-05-23T11:41:18;27.30;48.50
66271;DHT22;53063;39.614;8.814;2023-05-23T11:43:53;27.20;48.00
66271;DHT22;53063;39.614;8.814;2023-05-23T11:46:19;27.00;48.70
66271;DHT22;53063;39.614;8.814;2023-05-23T11:48:45;27.50;49.10
66271;DHT22;53063;39.614;8.814;2023-05-23T11:51:12;28.00;47.40
66271;DHT22;53063;39.614;8.814;2023-05-23T11:53:38;27.90;48.10
66271;DHT22;53063;39.614;8.814;2023-05-23T11:56:04;27.10;49.70
66271;DHT22;53063;39.614;8.814;2023-05-23T11:58:33;26.90;49.50
66271;DHT22;53063;39.614;8.814;2023-05-23T12:01:00;26.80;49.30
66271;DHT22;53063;39.614;8.814;2023-05-23T12:03:28;26.50;51.40
66271;DHT22;53063;39.614;8.814;2023-05-23T12:05:54;27.00;50.50
66271;DHT22;53063;39.614;8.814;2023-05-23T12:08:21;26.50;50.50
66271;DHT22;53063;39.614;8.814;2023-05-23T12:10:59;26.20;50.50
66271;DHT22;53063;39.614;8.814;2023-05-23T12:13:28;26.40;51.10
66271;DHT22;53063;39.614;8.814;2023-05-23T12:15:55;26.00;49.90
66271;DHT22;53063;39.614;8.814;2023-05-23T12:18:21;26.10;50.70
66271;DHT22;53063;39.614;8.814;2023-05-23T12:20:48;26.30;50.30
66271;DHT22;53063;39.614;8.814;2023-05-23T12:23:22;26.80;52.10
66271;DHT22;53063;39.614;8.814;2023-05-23T12:25:53;27.10;51.30
66271;DHT22;53063;39.614;8.814;2023-05-23T12:28:20;27.20;51.20
66271;DHT22;53063;39.614;8.814;2023-05-23T12:30:47;27.40;51.00
66271;DHT22;53063;39.614;8.814;2023-05-23T12:33:14;26.80;51.60
66271;DHT22;53063;39.614;8.814;2023-05-23T12:35:43;26.90;52.70
66271;DHT22;53063;39.614;8.814;2023-05-23T12:38:13;27.50;50.80
66271;DHT22;53063;39.614;8.814;2023-05-23T12:40:41;27.50;52.00
66271;DHT22;53063;39.614;8.814;2023-05-23T12:43:08;27.20;51.00
66271;DHT22;53063;39.614;8.814;2023-05-23T12:45:35;26.80;52.00
66271;DHT22;53063;39.614;8.814;2023-05-23T12:48:02;27.00;53.40
66271;DHT22;53063;39.614;8.814;2023-05-23T12:50:29;27.50;51.10
66271;DHT22;53063;39.614;8.814;2023-05-23T12:52:55;27.00;51.70
66271;DHT22;53063;39.614;8.814;2023-05-23T12:55:22;27.00;52.40
66271;DHT22;53063;39.614;8.814;2023-05-23T12:57:47;27.00;52.40
66271;DHT22;53063;39.614;8.814;2023-05-23T13:00:14;26.20;53.50
66271;DHT22;53063;39.614;8.814;2023-05-23T13:02:40;26.40;52.90
66271;DHT22;53063;39.614;8.814;2023-05-23T13:05:06;26.40;52.50
66271;DHT22;53063;39.614;8.814;2023-05-23T13:07:32;26.40;52.70
66271;DHT22;53063;39.614;8.814;2023-05-23T13:09:59;26.40;53.60
66271;DHT22;53063;39.614;8.814;2023-05-23T13:12:25;26.50;53.70
66271;DHT22;53063;39.614;8.814;2023-05-23T13:14:51;26.40;53.00
66271;DHT22;53063;39.614;8.814;2023-05-23T13:17:17;25.80;54.20
66271;DHT22;53063;39.614;8.814;2023-05-23T13:19:43;25.90;55.60
66271;DHT22;53063;39.614;8.814;2023-05-23T13:22:09;26.00;55.00
66271;DHT22;53063;39.614;8.814;2023-05-23T13:24:39;26.60;55.10
66271;DHT22;53063;39.614;8.814;2023-05-23T13:27:05;26.80;54.10
66271;DHT22;53063;39.614;8.814;2023-05-23T13:29:32;26.50;53.20
66271;DHT22;53063;39.614;8.814;2023-05-23T13:31:58;26.40;54.10
66271;DHT22;53063;39.614;8.814;2023-05-23T13:34:25;26.80;55.00
66271;DHT22;53063;39.614;8.814;2023-05-23T13:36:53;27.00;54.30
66271;DHT22;53063;39.614;8.814;2023-05-23T13:39:19;27.10;53.10
66271;DHT22;53063;39.614;8.814;2023-05-23T13:41:48;26.80;54.80
66271;DHT22;53063;39.614;8.814;2023-05-23T13:44:14;26.60;54.20
66271;DHT22;53063;39.614;8.814;2023-05-23T13:46:41;26.80;53.30
66271;DHT22;53063;39.614;8.814;2023-05-23T13:49:06;26.40;54.20
66271;DHT22;53063;39.614;8.814;2023-05-23T13:51:32;26.10;55.10
66271;DHT22;53063;39.614;8.814;2023-05-23T13:53:58;26.20;54.40
66271;DHT22;53063;39.614;8.814;2023-05-23T13:56:25;26.20;54.00
66271;DHT22;53063;39.614;8.814;2023-05-23T13:58:51;26.50;55.30
66271;DHT22;53063;39.614;8.814;2023-05-23T14:01:17;26.50;54.20
66271;DHT22;53063;39.614;8.814;2023-05-23T14:03:42;26.30;53.70
66271;DHT22;53063;39.614;8.814;2023-05-23T14:06:08;26.00;55.60
66271;DHT22;53063;39.614;8.814;2023-05-23T14:08:34;25.80;55.40
66271;DHT22;53063;39.614;8.814;2023-05-23T14:11:00;25.80;54.70
66271;DHT22;53063;39.614;8.814;2023-05-23T14:13:26;25.80;54.90
66271;DHT22;53063;39.614;8.814;2023-05-23T14:15:52;25.40;55.60
66271;DHT22;53063;39.614;8.814;2023-05-23T14:18:19;25.30;57.40
66271;DHT22;53063;39.614;8.814;2023-05-23T14:20:44;25.50;56.20
66271;DHT22;53063;39.614;8.814;2023-05-23T14:23:11;25.10;57.00
66271;DHT22;53063;39.614;8.814;2023-05-23T14:25:37;25.00;56.90
66271;DHT22;53063;39.614;8.814;2023-05-23T14:28:03;25.30;57.30
66271;DHT22;53063;39.614;8.814;2023-05-23T14:30:29;25.30;56.90
66271;DHT22;53063;39.614;8.814;2023-05-23T14:32:55;25.00;58.00
66271;DHT22;53063;39.614;8.814;2023-05-23T14:35:21;25.10;58.70
66271;DHT22;53063;39.614;8.814;2023-05-23T14:37:47;25.00;59.30
66271;DHT22;53063;39.614;8.814;2023-05-23T14:40:13;24.90;59.40
66271;DHT22;53063;39.614;8.814;2023-05-23T14:42:41;24.90;59.30
66271;DHT22;53063;39.614;8.814;2023-05-23T14:45:07;24.70;60.70
66271;DHT22;53063;39.614;8.814;2023-05-23T14:47:33;24.70;60.90
66271;DHT22;53063;39.614;8.814;2023-05-23T14:50:00;24.60;60.30
66271;DHT22;53063;39.614;8.814;2023-05-23T14:52:26;24.20;61.10
66271;DHT22;53063;39.614;8.814;2023-05-23T14:54:52;24.30;62.70
66271;DHT22;53063;39.614;8.814;2023-05-23T14:57:18;24.40;61.00
66271;DHT22;53063;39.614;8.814;2023-05-23T14:59:44;24.40;61.70
66271;DHT22;53063;39.614;8.814;2023-05-23T15:02:11;24.50;61.00
66271;DHT22;53063;39.614;8.814;2023-05-23T15:04:37;24.50;60.40
66271;DHT22;53063;39.614;8.814;2023-05-23T15:07:03;24.40;60.90
66271;DHT22;53063;39.614;8.814;2023-05-23T15:09:29;24.30;60.80
66271;DHT22;53063;39.614;8.814;2023-05-23T15:11:55;24.20;62.00
66271;DHT22;53063;39.614;8.814;2023-05-23T15:14:21;24.10;62.30
66271;DHT22;53063;39.614;8.814;2023-05-23T15:16:47;24.20;61.60
66271;DHT22;53063;39.614;8.814;2023-05-23T15:19:15;24.10;62.30
66271;DHT22;53063;39.614;8.814;2023-05-23T15:21:41;24.20;60.70
66271;DHT22;53063;39.614;8.814;2023-05-23T15:24:07;24.10;61.50
66271;DHT22;53063;39.614;8.814;2023-05-23T15:26:34;24.10;61.40
66271;DHT22;53063;39.614;8.814;2023-05-23T15:29:00;23.90;62.70
66271;DHT22;53063;39.614;8.814;2023-05-23T15:31:26;23.90;61.30
66271;DHT22;53063;39.614;8.814;2023-05-23T15:33:52;24.10;62.70
66271;DHT22;53063;39.614;8.814;2023-05-23T15:36:17;24.20;62.20
66271;DHT22;53063;39.614;8.814;2023-05-23T15:38:43;24.00;61.00
66271;DHT22;53063;39.614;8.814;2023-05-23T15:41:10;23.80;61.50
66271;DHT22;53063;39.614;8.814;2023-05-23T15:43:36;23.90;60.40
66271;DHT22;53063;39.614;8.814;2023-05-23T15:46:03;23.80;61.90
66271;DHT22;53063;39.614;8.814;2023-05-23T15:48:29;23.60;62.00
66271;DHT22;53063;39.614;8.814;2023-05-23T15:50:55;23.70;62.00
66271;DHT22;53063;39.614;8.814;2023-05-23T15:53:21;23.70;61.50